Time;durP1;ratioP1;P1;durP2;ratioP2;P2;SDS_P1;SDS_P2;PMS_P1;PMS_P2;Temp;Humidity;BMP_temperature;BMP_pressure;BME280_temperature;BME280_humidity;BME280_pressure;Samples;Min_cycle;Max_cycle;Signal;HPM_P1;HPM_P2
2023/06/19 00:01:25;;;;;;;8.97;7.77;;;;;;;;;;4954756;29;20911;-75
2023/06/19 00:03:53;;;;;;;13.23;7.97;;;;;;;;;;4954698;28;20286;-76
2023/06/19 00:06:21;;;;;;;13.50;8.70;;;;;;;;;;4953693;29;20282;-75
2023/06/19 00:08:48;;;;;;;11.80;8.80;;;;;;;;;;4954180;28;20980;-75
2023/06/19 00:11:16;;;;;;;13.43;9.67;;;;;;;;;;4954682;29;20195;-75
2023/06/19 00:13:43;;;;;;;13.47;8.60;;;;;;;;;;4954402;29;20318;-75
2023/06/19 00:16:11;;;;;;;12.80;8.97;;;;;;;;;;4954414;29;20282;-75
2023/06/19 00:18:39;;;;;;;15.27;8.53;;;;;;;;;;4954442;28;20214;-75
2023/06/19 00:21:07;;;;;;;15.73;8.67;;;;;;;;;;4954876;28;20241;-75
2023/06/19 00:23:36;;;;;;;10.80;8.27;;;;;;;;;;4954142;28;20200;-75
2023/06/19 00:26:04;;;;;;;12.63;8.53;;;;;;;;;;4953652;28;20620;-75
2023/06/19 00:28:32;;;;;;;16.90;8.70;;;;;;;;;;4953941;29;20678;-74
2023/06/19 00:30:59;;;;;;;13.67;9.07;;;;;;;;;;4954491;28;20282;-75
2023/06/19 00:33:26;;;;;;;14.47;8.83;;;;;;;;;;4953682;29;20667;-75
2023/06/19 00:35:55;;;;;;;16.00;9.23;;;;;;;;;;4954831;29;20226;-76
2023/06/19 00:38:23;;;;;;;12.30;9.50;;;;;;;;;;4953859;28;20221;-75
2023/06/19 00:40:52;;;;;;;12.33;9.70;;;;;;;;;;4954370;29;20218;-75
2023/06/19 00:43:19;;;;;;;15.23;9.83;;;;;;;;;;4953772;28;20750;-75
2023/06/19 00:45:46;;;;;;;12.90;9.57;;;;;;;;;;4953729;29;20207;-75
2023/06/19 00:48:13;;;;;;;14.33;9.83;;;;;;;;;;4954222;29;20289;-75
2023/06/19 00:50:40;;;;;;;14.70;9.90;;;;;;;;;;4953405;29;20306;-75
2023/06/19 00:53:08;;;;;;;17.23;10.00;;;;;;;;;;4934680;29;20930;-74
2023/06/19 00:55:36;;;;;;;13.57;9.80;;;;;;;;;;4949651;29;20666;-75
2023/06/19 00:58:04;;;;;;;16.37;10.47;;;;;;;;;;4946928;28;20243;-75
2023/06/19 01:00:31;;;;;;;18.53;10.60;;;;;;;;;;4948781;28;20286;-75
2023/06/19 01:02:58;;;;;;;15.10;10.50;;;;;;;;;;4953871;28;20310;-75
2023/06/19 01:05:26;;;;;;;15.97;10.40;;;;;;;;;;4953568;29;20307;-75
2023/06/19 01:07:56;;;;;;;18.13;10.63;;;;;;;;;;4953842;28;20287;-75
2023/06/19 01:10:26;;;;;;;14.83;9.80;;;;;;;;;;4953491;29;20262;-76
2023/06/19 01:12:57;;;;;;;16.77;11.20;;;;;;;;;;4953283;29;20708;-75
2023/06/19 01:15:25;;;;;;;19.43;10.60;;;;;;;;;;4953540;28;20235;-74
2023/06/19 01:17:53;;;;;;;15.30;10.67;;;;;;;;;;4953032;28;20330;-74
2023/06/19 01:20:21;;;;;;;16.43;10.77;;;;;;;;;;4952951;29;20658;-75
2023/06/19 01:22:50;;;;;;;16.90;11.10;;;;;;;;;;4953443;29;20257;-75
2023/06/19 01:25:17;;;;;;;24.13;13.67;;;;;;;;;;4953405;28;20205;-75
2023/06/19 01:27:44;;;;;;;18.63;12.77;;;;;;;;;;4941597;29;20244;-74
2023/06/19 01:30:13;;;;;;;24.73;12.47;;;;;;;;;;4934110;29;20200;-75
2023/06/19 01:32:43;;;;;;;18.07;12.37;;;;;;;;;;4934308;29;20204;-75
2023/06/19 01:35:11;;;;;;;18.43;12.20;;;;;;;;;;4951085;29;20696;-75
2023/06/19 01:37:39;;;;;;;22.47;13.27;;;;;;;;;;4953248;29;20297;-75
2023/06/19 01:40:10;;;;;;;22.13;12.73;;;;;;;;;;4953086;29;20291;-76
2023/06/19 01:42:38;;;;;;;17.07;12.57;;;;;;;;;;4952888;29;20210;-75
2023/06/19 01:45:07;;;;;;;18.73;12.87;;;;;;;;;;4953173;29;20294;-75
2023/06/19 01:47:34;;;;;;;18.73;13.57;;;;;;;;;;4953097;29;20743;-75
2023/06/19 01:50:01;;;;;;;24.63;13.40;;;;;;;;;;4953053;28;20199;-75
2023/06/19 01:52:29;;;;;;;20.80;13.30;;;;;;;;;;4952971;29;20257;-75
2023/06/19 01:54:56;;;;;;;20.30;13.17;;;;;;;;;;4952907;29;20325;-75
2023/06/19 01:57:24;;;;;;;18.80;12.30;;;;;;;;;;4953329;28;20295;-76
2023/06/19 01:59:51;;;;;;;17.50;12.13;;;;;;;;;;4952026;28;20286;-75
2023/06/19 02:02:19;;;;;;;17.53;11.97;;;;;;;;;;4953041;29;20744;-75
2023/06/19 02:04:46;;;;;;;19.80;11.47;;;;;;;;;;4952675;29;20752;-75
2023/06/19 02:07:13;;;;;;;21.57;12.37;;;;;;;;;;4953056;28;20203;-75
2023/06/19 02:09:41;;;;;;;15.33;11.23;;;;;;;;;;4952925;29;20653;-74
2023/06/19 02:12:09;;;;;;;18.20;12.43;;;;;;;;;;4952926;28;20207;-75
2023/06/19 02:14:37;;;;;;;20.57;12.03;;;;;;;;;;4952730;29;20231;-75
2023/06/19 02:17:04;;;;;;;20.37;13.20;;;;;;;;;;4952751;29;20338;-75
2023/06/19 02:19:32;;;;;;;20.33;12.43;;;;;;;;;;4952531;29;20625;-75
2023/06/19 02:21:59;;;;;;;21.67;12.30;;;;;;;;;;4952887;29;20311;-76
2023/06/19 02:24:26;;;;;;;20.93;12.30;;;;;;;;;;4953235;29;20226;-74
2023/06/19 02:26:53;;;;;;;22.93;13.10;;;;;;;;;;4952826;28;20250;-75
2023/06/19 02:29:21;;;;;;;19.60;13.53;;;;;;;;;;4955357;28;20203;-74
2023/06/19 02:31:49;;;;;;;24.13;12.60;;;;;;;;;;4956749;28;20199;-75
2023/06/19 02:34:17;;;;;;;23.03;12.87;;;;;;;;;;4955827;29;20807;-75
2023/06/19 02:36:47;;;;;;;21.37;12.80;;;;;;;;;;4956674;29;20665;-75
2023/06/19 02:39:14;;;;;;;19.83;12.93;;;;;;;;;;4956502;28;20285;-76
2023/06/19 02:41:43;;;;;;;18.70;12.50;;;;;;;;;;4955903;29;20376;-75
2023/06/19 02:44:10;;;;;;;17.27;12.40;;;;;;;;;;4956284;28;20199;-76
2023/06/19 02:46:37;;;;;;;20.67;12.20;;;;;;;;;;4948804;29;20294;-75
2023/06/19 02:49:06;;;;;;;17.07;12.03;;;;;;;;;;4939049;29;20311;-75
2023/06/19 02:51:33;;;;;;;22.27;14.00;;;;;;;;;;4937197;29;20323;-75
2023/06/19 02:54:00;;;;;;;20.77;13.17;;;;;;;;;;4936882;29;20323;-75
2023/06/19 02:56:28;;;;;;;23.63;12.20;;;;;;;;;;4937065;29;20199;-75
2023/06/19 02:58:55;;;;;;;24.13;12.53;;;;;;;;;;4937897;28;20681;-76
2023/06/19 03:01:22;;;;;;;23.53;12.50;;;;;;;;;;4955558;29;20199;-76
2023/06/19 03:03:52;;;;;;;25.80;12.70;;;;;;;;;;4956287;28;20673;-75
2023/06/19 03:06:20;;;;;;;22.33;12.47;;;;;;;;;;4956077;29;20207;-75
2023/06/19 03:08:47;;;;;;;23.67;12.00;;;;;;;;;;4955908;28;20234;-75
2023/06/19 03:11:15;;;;;;;22.10;12.33;;;;;;;;;;4955642;28;20743;-75
2023/06/19 03:13:46;;;;;;;19.97;12.90;;;;;;;;;;4956037;29;20334;-75
2023/06/19 03:16:14;;;;;;;19.17;13.10;;;;;;;;;;4955147;29;20214;-76
2023/06/19 03:18:41;;;;;;;21.80;13.50;;;;;;;;;;4956033;28;20206;-76
2023/06/19 03:21:08;;;;;;;23.33;12.70;;;;;;;;;;4954979;28;20209;-74
2023/06/19 03:23:37;;;;;;;19.20;11.63;;;;;;;;;;4955207;29;20303;-75
2023/06/19 03:26:04;;;;;;;20.93;12.83;;;;;;;;;;4955801;29;20905;-75
2023/06/19 03:28:31;;;;;;;19.00;12.27;;;;;;;;;;4955768;29;20286;-76
2023/06/19 03:30:58;;;;;;;18.80;11.90;;;;;;;;;;4954821;28;20231;-74
2023/06/19 03:33:26;;;;;;;20.93;13.47;;;;;;;;;;4955061;29;20723;-75
2023/06/19 03:35:53;;;;;;;22.80;13.17;;;;;;;;;;4955142;29;20290;-76
2023/06/19 03:38:20;;;;;;;24.30;13.03;;;;;;;;;;4955353;29;20322;-75
2023/06/19 03:40:49;;;;;;;23.27;13.27;;;;;;;;;;4954922;28;20281;-75
2023/06/19 03:43:16;;;;;;;20.53;12.77;;;;;;;;;;4955363;29;20298;-74
2023/06/19 03:45:43;;;;;;;22.67;13.10;;;;;;;;;;4954781;28;20307;-76
2023/06/19 03:48:10;;;;;;;25.83;13.40;;;;;;;;;;4955110;29;20293;-75
2023/06/19 03:50:37;;;;;;;24.00;13.07;;;;;;;;;;4954955;28;20302;-75
2023/06/19 03:53:05;;;;;;;22.77;13.47;;;;;;;;;;4955244;29;20210;-75
2023/06/19 03:55:32;;;;;;;20.70;13.13;;;;;;;;;;4954634;28;20893;-75
2023/06/19 03:58:00;;;;;;;19.37;13.10;;;;;;;;;;4954569;29;20715;-75
2023/06/19 04:00:28;;;;;;;20.40;13.00;;;;;;;;;;4954078;28;20298;-75
2023/06/19 04:02:55;;;;;;;24.50;13.27;;;;;;;;;;4954984;29;20230;-75
2023/06/19 04:05:22;;;;;;;20.97;13.13;;;;;;;;;;4954423;29;20621;-75
2023/06/19 04:07:49;;;;;;;24.30;13.43;;;;;;;;;;4954710;29;20295;-75
2023/06/19 04:10:17;;;;;;;24.33;13.80;;;;;;;;;;4954640;28;20645;-75
2023/06/19 04:12:45;;;;;;;28.10;15.13;;;;;;;;;;4954260;29;20195;-75
2023/06/19 04:15:13;;;;;;;23.77;14.50;;;;;;;;;;4954300;29;20250;-75
2023/06/19 04:17:40;;;;;;;22.27;13.93;;;;;;;;;;4954371;28;20273;-76
2023/06/19 04:20:10;;;;;;;21.23;13.57;;;;;;;;;;4954898;28;20318;-75
2023/06/19 04:22:38;;;;;;;27.47;15.10;;;;;;;;;;4954421;29;20195;-74
2023/06/19 04:25:06;;;;;;;22.97;14.97;;;;;;;;;;4954674;29;20199;-75
2023/06/19 04:27:33;;;;;;;26.93;15.40;;;;;;;;;;4954506;29;20685;-76
2023/06/19 04:30:00;;;;;;;27.90;16.97;;;;;;;;;;4953379;28;20286;-75
2023/06/19 04:32:29;;;;;;;29.87;16.60;;;;;;;;;;4954522;29;20201;-75
2023/06/19 04:34:57;;;;;;;24.63;15.23;;;;;;;;;;4954049;28;20269;-75
2023/06/19 04:37:24;;;;;;;31.73;17.93;;;;;;;;;;4954013;29;20199;-75
2023/06/19 04:39:51;;;;;;;34.43;18.50;;;;;;;;;;4954248;29;20234;-75
2023/06/19 04:42:19;;;;;;;31.17;18.67;;;;;;;;;;4954040;29;20297;-75
2023/06/19 04:44:47;;;;;;;39.17;18.93;;;;;;;;;;4953892;28;20195;-75
2023/06/19 04:47:14;;;;;;;36.10;19.07;;;;;;;;;;4953903;29;20222;-75
2023/06/19 04:49:42;;;;;;;33.00;19.00;;;;;;;;;;4953963;29;20199;-76
2023/06/19 04:52:11;;;;;;;37.43;19.03;;;;;;;;;;4953425;28;20293;-75
2023/06/19 04:54:38;;;;;;;38.10;18.60;;;;;;;;;;4953687;29;20250;-74
2023/06/19 04:57:06;;;;;;;37.10;19.57;;;;;;;;;;4954031;29;20321;-75
2023/06/19 04:59:33;;;;;;;34.77;18.90;;;;;;;;;;4953397;29;20206;-75
2023/06/19 05:02:00;;;;;;;82.23;19.23;;;;;;;;;;4953872;29;20203;-74
2023/06/19 05:04:30;;;;;;;68.90;18.80;;;;;;;;;;4953939;29;20230;-75
2023/06/19 05:06:58;;;;;;;56.90;17.67;;;;;;;;;;4953645;29;20691;-77
2023/06/19 05:09:25;;;;;;;43.97;18.13;;;;;;;;;;4953920;29;20205;-78
2023/06/19 05:11:53;;;;;;;35.27;17.80;;;;;;;;;;4953637;28;20231;-79
2023/06/19 05:14:20;;;;;;;47.73;19.00;;;;;;;;;;4972108;28;20226;-77
2023/06/19 05:16:47;;;;;;;46.77;21.10;;;;;;;;;;4953314;28;20270;-78
2023/06/19 05:19:14;;;;;;;49.23;17.50;;;;;;;;;;4953453;29;20286;-78
2023/06/19 05:21:41;;;;;;;75.67;18.03;;;;;;;;;;4953564;29;20206;-77
2023/06/19 05:24:10;;;;;;;70.80;17.63;;;;;;;;;;4953850;29;20227;-78
2023/06/19 05:26:37;;;;;;;72.83;18.10;;;;;;;;;;4952905;28;20651;-76
2023/06/19 05:29:08;;;;;;;56.50;17.57;;;;;;;;;;4953473;29;20347;-76
2023/06/19 05:31:35;;;;;;;54.93;17.20;;;;;;;;;;4953350;29;20255;-77
2023/06/19 05:34:03;;;;;;;67.30;16.67;;;;;;;;;;4953017;28;20209;-78
2023/06/19 05:36:30;;;;;;;46.43;16.93;;;;;;;;;;4953420;29;20209;-78
2023/06/19 05:38:57;;;;;;;42.47;17.23;;;;;;;;;;4953398;28;20282;-77
2023/06/19 05:41:26;;;;;;;51.33;16.57;;;;;;;;;;4953005;28;20285;-78
2023/06/19 05:43:53;;;;;;;35.77;16.20;;;;;;;;;;4952996;29;20202;-78
2023/06/19 05:46:20;;;;;;;69.17;17.57;;;;;;;;;;4952986;28;20207;-77
2023/06/19 05:48:47;;;;;;;39.93;16.03;;;;;;;;;;4952957;29;20234;-76
2023/06/19 05:51:15;;;;;;;39.78;15.73;;;;;;;;;;4953144;29;20227;-79
2023/06/19 05:53:43;;;;;;;27.73;16.57;;;;;;;;;;4949111;28;20907;-75
2023/06/19 05:56:10;;;;;;;36.17;17.00;;;;;;;;;;4603889;28;9999916;-76
2023/06/19 05:58:39;;;;;;;24.85;16.50;;;;;;;;;;4949780;29;20297;-75
2023/06/19 06:01:06;;;;;;;31.40;16.50;;;;;;;;;;4949380;29;20203;-76
2023/06/19 06:03:34;;;;;;;29.75;16.88;;;;;;;;;;4952249;28;20838;-76
2023/06/19 06:06:03;;;;;;;26.08;15.05;;;;;;;;;;4951352;29;20692;-76
2023/06/19 06:08:30;;;;;;;28.38;15.60;;;;;;;;;;4950826;28;20205;-75
2023/06/19 06:10:57;;;;;;;21.77;14.68;;;;;;;;;;4950137;28;20235;-75
2023/06/19 06:13:24;;;;;;;20.10;13.85;;;;;;;;;;4946941;29;20242;-76
2023/06/19 06:15:53;;;;;;;25.73;15.18;;;;;;;;;;4949962;28;20266;-76
2023/06/19 06:18:20;;;;;;;20.27;14.65;;;;;;;;;;4943554;28;20669;-76
2023/06/19 06:20:48;;;;;;;22.90;14.68;;;;;;;;;;4946959;29;20197;-76
2023/06/19 06:23:15;;;;;;;17.92;13.55;;;;;;;;;;4946040;29;20192;-76
2023/06/19 06:25:42;;;;;;;24.90;15.13;;;;;;;;;;4946099;29;20195;-76
2023/06/19 06:28:09;;;;;;;22.95;15.80;;;;;;;;;;4946560;29;20287;-76
2023/06/19 06:30:36;;;;;;;23.48;15.90;;;;;;;;;;4948733;28;20294;-75
2023/06/19 06:33:05;;;;;;;30.33;14.40;;;;;;;;;;4944786;29;20294;-75
2023/06/19 06:35:32;;;;;;;21.85;14.90;;;;;;;;;;4939364;29;20231;-75
2023/06/19 06:37:59;;;;;;;18.70;13.82;;;;;;;;;;4937567;29;20291;-75
2023/06/19 06:40:27;;;;;;;17.05;12.93;;;;;;;;;;4955905;29;20226;-77
2023/06/19 06:42:54;;;;;;;18.38;14.07;;;;;;;;;;4956368;29;20206;-76
2023/06/19 06:45:22;;;;;;;18.15;13.75;;;;;;;;;;4953963;28;20203;-75
2023/06/19 06:47:49;;;;;;;18.90;14.35;;;;;;;;;;4956178;29;20253;-77
2023/06/19 06:50:18;;;;;;;21.40;13.90;;;;;;;;;;4952799;29;20195;-77
2023/06/19 06:52:45;;;;;;;17.83;12.98;;;;;;;;;;4952101;28;20203;-77
2023/06/19 06:55:12;;;;;;;21.27;13.75;;;;;;;;;;4964513;28;20313;-77
2023/06/19 06:57:39;;;;;;;22.65;14.55;;;;;;;;;;4975345;28;20230;-76
2023/06/19 07:00:09;;;;;;;22.17;14.82;;;;;;;;;;4974670;28;20293;-75
2023/06/19 07:02:36;;;;;;;17.52;13.10;;;;;;;;;;4975409;28;20234;-76
2023/06/19 07:05:04;;;;;;;20.20;13.50;;;;;;;;;;4975461;28;20759;-77
2023/06/19 07:07:32;;;;;;;21.73;14.20;;;;;;;;;;4975212;28;20222;-75
2023/06/19 07:09:59;;;;;;;19.58;14.13;;;;;;;;;;4974939;28;20293;-77
2023/06/19 07:12:27;;;;;;;16.30;13.10;;;;;;;;;;4975167;28;20739;-76
2023/06/19 07:14:55;;;;;;;21.90;15.38;;;;;;;;;;4969579;28;20223;-76
2023/06/19 07:17:22;;;;;;;17.77;13.90;;;;;;;;;;4955832;29;20246;-77
2023/06/19 07:19:49;;;;;;;20.95;14.50;;;;;;;;;;4955913;29;20199;-77
2023/06/19 07:22:17;;;;;;;21.55;14.75;;;;;;;;;;4955523;29;20250;-75
2023/06/19 07:24:45;;;;;;;15.50;13.35;;;;;;;;;;4955544;28;20230;-77
2023/06/19 07:27:12;;;;;;;18.48;13.32;;;;;;;;;;4956100;28;20309;-77
2023/06/19 07:29:39;;;;;;;16.23;11.48;;;;;;;;;;4955175;28;20306;-76
2023/06/19 07:32:07;;;;;;;14.63;11.05;;;;;;;;;;4955706;28;20290;-77
2023/06/19 07:34:34;;;;;;;14.13;11.88;;;;;;;;;;4955552;29;20199;-76
2023/06/19 07:37:02;;;;;;;14.55;11.52;;;;;;;;;;4954794;28;20230;-75
2023/06/19 07:39:29;;;;;;;16.15;12.18;;;;;;;;;;4955753;29;20298;-77
2023/06/19 07:41:57;;;;;;;15.25;12.63;;;;;;;;;;4955451;28;20290;-76
2023/06/19 07:44:24;;;;;;;13.30;10.57;;;;;;;;;;4955351;29;20656;-77
2023/06/19 07:46:51;;;;;;;12.23;10.63;;;;;;;;;;4955210;29;20729;-77
2023/06/19 07:49:19;;;;;;;11.88;10.52;;;;;;;;;;4972346;28;20643;-77
2023/06/19 07:51:46;;;;;;;14.32;10.60;;;;;;;;;;4973981;28;20294;-77
2023/06/19 07:54:13;;;;;;;12.38;10.82;;;;;;;;;;4974302;28;20228;-76
2023/06/19 07:56:41;;;;;;;13.63;11.07;;;;;;;;;;4974316;28;20262;-76
2023/06/19 07:59:09;;;;;;;14.30;10.07;;;;;;;;;;4974517;28;20203;-75
2023/06/19 08:01:37;;;;;;;11.45;9.65;;;;;;;;;;4974247;28;20293;-75
2023/06/19 08:04:04;;;;;;;13.13;9.90;;;;;;;;;;4974562;28;20205;-77
2023/06/19 08:06:31;;;;;;;12.48;9.85;;;;;;;;;;4974125;28;20237;-75
2023/06/19 08:08:58;;;;;;;10.80;9.65;;;;;;;;;;4974173;28;20297;-76
2023/06/19 08:11:25;;;;;;;10.00;8.95;;;;;;;;;;4973942;28;20290;-75
2023/06/19 08:13:53;;;;;;;10.40;8.68;;;;;;;;;;4974612;28;20297;-75
2023/06/19 08:16:21;;;;;;;10.02;7.90;;;;;;;;;;4957342;28;20242;-77
2023/06/19 08:18:49;;;;;;;10.40;8.40;;;;;;;;;;4954758;29;20286;-75
2023/06/19 08:21:16;;;;;;;11.07;7.75;;;;;;;;;;4954246;28;20286;-76
2023/06/19 08:23:43;;;;;;;10.73;7.50;;;;;;;;;;4954769;29;20311;-77
2023/06/19 08:26:11;;;;;;;8.35;7.03;;;;;;;;;;4953363;28;20199;-76
2023/06/19 08:28:40;;;;;;;7.72;6.90;;;;;;;;;;4954670;29;20234;-76
2023/06/19 08:31:07;;;;;;;8.63;6.65;;;;;;;;;;4954698;29;20291;-76
2023/06/19 08:33:36;;;;;;;9.20;7.38;;;;;;;;;;4954581;28;20210;-77
2023/06/19 08:36:03;;;;;;;8.57;7.03;;;;;;;;;;4954131;29;20239;-78
2023/06/19 08:38:30;;;;;;;9.50;6.63;;;;;;;;;;4954455;29;20291;-77
2023/06/19 08:40:58;;;;;;;7.25;6.00;;;;;;;;;;4954180;29;20199;-76
2023/06/19 08:43:25;;;;;;;6.80;5.53;;;;;;;;;;4954611;29;20199;-77
2023/06/19 08:46:02;;;;;;;7.03;6.32;;;;;;;;;;4954588;29;20204;-77
2023/06/19 08:48:30;;;;;;;8.50;6.63;;;;;;;;;;4950010;29;20293;-77
2023/06/19 08:50:58;;;;;;;8.38;7.07;;;;;;;;;;4953042;29;20290;-76
2023/06/19 08:53:25;;;;;;;9.57;6.53;;;;;;;;;;4951819;29;20230;-76
2023/06/19 08:55:54;;;;;;;7.43;6.60;;;;;;;;;;4942499;29;20306;-77
2023/06/19 08:58:23;;;;;;;7.03;6.22;;;;;;;;;;4971037;28;20205;-77
2023/06/19 09:00:51;;;;;;;7.15;5.95;;;;;;;;;;4954564;28;20207;-76
2023/06/19 09:03:21;;;;;;;10.18;6.72;;;;;;;;;;4934363;29;20228;-77
2023/06/19 09:05:50;;;;;;;9.25;7.10;;;;;;;;;;4934490;29;20673;-76
2023/06/19 09:08:19;;;;;;;8.18;6.93;;;;;;;;;;4939274;28;20208;-77
2023/06/19 09:10:55;;;;;;;8.57;6.35;;;;;;;;;;4952799;28;20240;-79
2023/06/19 09:13:22;;;;;;;9.35;7.63;;;;;;;;;;4934198;29;20231;-78
2023/06/19 09:15:58;;;;;;;8.15;7.38;;;;;;;;;;4944794;29;20318;-77
2023/06/19 09:18:25;;;;;;;8.95;7.25;;;;;;;;;;4951488;29;20238;-78
2023/06/19 09:20:54;;;;;;;8.48;6.78;;;;;;;;;;4945972;29;20306;-78
2023/06/19 09:23:23;;;;;;;9.40;7.22;;;;;;;;;;4944613;29;20204;-78
2023/06/19 09:25:51;;;;;;;7.65;6.47;;;;;;;;;;4942228;29;20202;-78
2023/06/19 09:28:19;;;;;;;8.07;6.25;;;;;;;;;;4951612;29;20234;-78
2023/06/19 09:30:53;;;;;;;8.75;6.13;;;;;;;;;;4953402;29;20210;-78
2023/06/19 09:33:20;;;;;;;8.18;5.88;;;;;;;;;;4952840;29;20285;-78
2023/06/19 09:35:47;;;;;;;6.13;5.38;;;;;;;;;;4934589;29;20322;-78
2023/06/19 09:38:16;;;;;;;5.85;5.25;;;;;;;;;;4936131;29;20339;-78
2023/06/19 09:40:46;;;;;;;7.20;5.53;;;;;;;;;;4935351;29;20196;-79
2023/06/19 09:43:14;;;;;;;7.30;5.68;;;;;;;;;;4951504;28;20672;-78
2023/06/19 09:45:41;;;;;;;6.10;5.45;;;;;;;;;;4933858;29;20303;-78
2023/06/19 09:48:12;;;;;;;8.07;6.40;;;;;;;;;;4934704;29;20204;-78
2023/06/19 09:50:41;;;;;;;7.85;6.03;;;;;;;;;;4946206;28;20720;-78
2023/06/19 09:53:08;;;;;;;6.50;5.72;;;;;;;;;;4938820;29;20199;-78
2023/06/19 09:55:37;;;;;;;7.68;6.13;;;;;;;;;;4949982;28;20203;-78
2023/06/19 09:58:07;;;;;;;8.80;6.00;;;;;;;;;;4947537;29;20204;-78
2023/06/19 10:00:35;;;;;;;8.60;5.88;;;;;;;;;;4935762;29;20239;-78
2023/06/19 10:03:05;;;;;;;6.95;5.85;;;;;;;;;;4938396;29;20278;-78
2023/06/19 10:05:32;;;;;;;8.68;6.15;;;;;;;;;;4953157;29;20203;-78
2023/06/19 10:08:04;;;;;;;7.22;5.78;;;;;;;;;;4951750;29;20680;-78
2023/06/19 10:10:31;;;;;;;7.18;6.07;;;;;;;;;;4942385;29;20195;-77
2023/06/19 10:13:00;;;;;;;8.57;6.05;;;;;;;;;;4965813;28;20675;-78
2023/06/19 10:15:30;;;;;;;6.95;6.25;;;;;;;;;;4953169;28;20202;-78
2023/06/19 10:18:02;;;;;;;11.23;5.72;;;;;;;;;;4946013;28;20724;-78
2023/06/19 10:20:31;;;;;;;6.90;6.10;;;;;;;;;;4948865;29;20246;-78
2023/06/19 10:23:00;;;;;;;8.07;6.53;;;;;;;;;;4948449;28;20735;-79
2023/06/19 10:25:29;;;;;;;8.68;6.10;;;;;;;;;;4946860;29;20203;-78
2023/06/19 10:27:57;;;;;;;7.53;6.07;;;;;;;;;;4944808;29;20207;-79
2023/06/19 10:30:24;;;;;;;6.30;5.70;;;;;;;;;;4941961;29;20204;-79
2023/06/19 10:32:53;;;;;;;8.75;6.18;;;;;;;;;;4943454;29;20287;-79
2023/06/19 10:35:22;;;;;;;6.85;5.88;;;;;;;;;;4944301;29;20199;-79
2023/06/19 10:37:50;;;;;;;7.60;5.28;;;;;;;;;;4937011;29;20227;-78
2023/06/19 10:40:17;;;;;;;6.30;5.60;;;;;;;;;;4938662;29;20203;-78
2023/06/19 10:42:45;;;;;;;8.40;6.07;;;;;;;;;;4951847;28;20235;-79
2023/06/19 10:45:13;;;;;;;6.82;5.38;;;;;;;;;;4946470;29;20212;-79
2023/06/19 10:47:41;;;;;;;5.65;5.13;;;;;;;;;;4933977;29;20204;-78
2023/06/19 10:50:12;;;;;;;7.93;5.95;;;;;;;;;;4943914;29;20546;-78
2023/06/19 10:52:43;;;;;;;10.27;6.15;;;;;;;;;;4955720;28;20206;-79
2023/06/19 10:55:11;;;;;;;6.88;5.82;;;;;;;;;;4956265;29;20695;-78
2023/06/19 10:57:38;;;;;;;6.53;5.57;;;;;;;;;;4952015;29;20262;-79
2023/06/19 11:00:11;;;;;;;7.18;5.55;;;;;;;;;;4944058;29;20195;-80
2023/06/19 11:02:39;;;;;;;5.55;5.05;;;;;;;;;;4955621;29;20210;-79
2023/06/19 11:05:07;;;;;;;6.32;5.35;;;;;;;;;;4956368;28;20203;-78
2023/06/19 11:07:35;;;;;;;6.18;5.40;;;;;;;;;;4956196;29;20203;-77
2023/06/19 11:10:03;;;;;;;5.63;4.95;;;;;;;;;;4955649;29;20302;-78
2023/06/19 11:12:30;;;;;;;5.70;4.82;;;;;;;;;;4956212;29;20202;-79
2023/06/19 11:14:57;;;;;;;6.95;4.80;;;;;;;;;;4955376;29;20290;-78
2023/06/19 11:17:25;;;;;;;8.45;4.65;;;;;;;;;;4955587;29;20298;-78
2023/06/19 11:19:52;;;;;;;7.57;4.97;;;;;;;;;;4956188;29;20235;-78
2023/06/19 11:22:19;;;;;;;5.82;4.85;;;;;;;;;;4955818;28;20306;-78
2023/06/19 11:24:48;;;;;;;6.22;4.78;;;;;;;;;;4956002;29;20838;-79
2023/06/19 11:27:18;;;;;;;6.75;4.53;;;;;;;;;;4955687;28;20206;-77
2023/06/19 11:29:45;;;;;;;6.22;4.35;;;;;;;;;;4956056;29;20744;-78
2023/06/19 11:32:14;;;;;;;6.97;4.47;;;;;;;;;;4955729;29;20238;-78
2023/06/19 11:34:44;;;;;;;6.30;4.20;;;;;;;;;;4955668;28;20203;-78
2023/06/19 11:37:15;;;;;;;5.03;4.43;;;;;;;;;;4955391;29;20246;-78
2023/06/19 11:39:42;;;;;;;5.57;4.55;;;;;;;;;;4955662;29;20550;-79
2023/06/19 11:42:10;;;;;;;5.10;4.60;;;;;;;;;;4955557;29;20590;-77
2023/06/19 11:44:53;;;;;;;6.90;4.10;;;;;;;;;;4955127;29;20618;-78
2023/06/19 11:47:21;;;;;;;4.78;4.10;;;;;;;;;;4955251;28;20258;-78
2023/06/19 11:49:49;;;;;;;4.85;4.13;;;;;;;;;;4955437;29;20303;-77
2023/06/19 11:52:16;;;;;;;7.97;4.13;;;;;;;;;;4954761;28;20206;-77
2023/06/19 11:54:44;;;;;;;6.82;3.90;;;;;;;;;;4955011;28;20319;-78
2023/06/19 11:57:12;;;;;;;5.75;4.10;;;;;;;;;;4955358;28;20266;-78
2023/06/19 11:59:40;;;;;;;4.63;3.83;;;;;;;;;;4954710;28;20199;-78
2023/06/19 12:02:07;;;;;;;5.32;4.10;;;;;;;;;;4955350;29;20195;-78
2023/06/19 12:04:34;;;;;;;4.45;3.72;;;;;;;;;;4955095;28;20294;-78
2023/06/19 12:07:03;;;;;;;4.05;3.60;;;;;;;;;;4954883;29;20294;-77
2023/06/19 12:09:32;;;;;;;4.65;3.75;;;;;;;;;;4955417;29;20195;-76
2023/06/19 12:12:00;;;;;;;4.60;3.85;;;;;;;;;;4955173;28;20207;-78
2023/06/19 12:14:28;;;;;;;4.93;3.70;;;;;;;;;;4954433;28;20206;-78
2023/06/19 12:16:55;;;;;;;4.22;3.55;;;;;;;;;;4954724;29;20260;-79
2023/06/19 12:19:23;;;;;;;4.85;3.78;;;;;;;;;;4954809;28;20282;-78
2023/06/19 12:21:50;;;;;;;5.07;3.70;;;;;;;;;;4954780;28;20290;-78
2023/06/19 12:24:17;;;;;;;5.60;3.88;;;;;;;;;;4953926;28;20250;-78
2023/06/19 12:26:44;;;;;;;5.10;3.58;;;;;;;;;;4955365;28;20200;-78
2023/06/19 12:29:12;;;;;;;5.95;3.70;;;;;;;;;;4970173;28;20610;-79
2023/06/19 12:31:40;;;;;;;4.55;3.78;;;;;;;;;;4958367;28;20286;-79
2023/06/19 12:34:07;;;;;;;4.78;3.83;;;;;;;;;;4965726;28;20195;-78
2023/06/19 12:36:34;;;;;;;6.18;3.90;;;;;;;;;;4965637;28;20318;-78
2023/06/19 12:39:05;;;;;;;4.32;3.67;;;;;;;;;;4957520;28;20293;-79
2023/06/19 12:41:33;;;;;;;4.22;3.83;;;;;;;;;;4969472;28;20684;-78
2023/06/19 12:44:00;;;;;;;3.85;3.47;;;;;;;;;;4960625;28;20214;-78
2023/06/19 12:46:27;;;;;;;4.60;3.80;;;;;;;;;;4963188;28;20286;-79
2023/06/19 12:48:56;;;;;;;6.20;3.80;;;;;;;;;;4967652;28;20699;-78
2023/06/19 12:51:23;;;;;;;6.20;3.78;;;;;;;;;;4956838;28;20247;-78
2023/06/19 12:53:50;;;;;;;5.28;3.95;;;;;;;;;;4963623;28;20202;-79
2023/06/19 12:56:17;;;;;;;4.85;3.50;;;;;;;;;;4944441;28;20294;-77
2023/06/19 12:58:44;;;;;;;4.05;3.25;;;;;;;;;;4946629;28;20305;-78
2023/06/19 13:01:11;;;;;;;4.20;3.80;;;;;;;;;;4945667;28;20364;-78
2023/06/19 13:03:39;;;;;;;4.78;3.58;;;;;;;;;;4949047;28;20289;-78
2023/06/19 13:06:07;;;;;;;5.25;3.92;;;;;;;;;;4966185;28;20209;-78
2023/06/19 13:08:34;;;;;;;4.65;3.60;;;;;;;;;;4962365;28;20597;-78
2023/06/19 13:11:01;;;;;;;4.88;3.50;;;;;;;;;;4959903;28;20225;-78
2023/06/19 13:13:29;;;;;;;6.45;3.80;;;;;;;;;;4968881;28;20286;-78
2023/06/19 13:15:56;;;;;;;5.63;3.38;;;;;;;;;;4956695;28;20205;-78
2023/06/19 13:18:23;;;;;;;3.70;3.22;;;;;;;;;;4965634;28;20241;-78
2023/06/19 13:20:50;;;;;;;4.25;3.60;;;;;;;;;;4963966;28;20297;-78
2023/06/19 13:23:19;;;;;;;5.13;3.30;;;;;;;;;;4958074;28;20643;-78
2023/06/19 13:25:46;;;;;;;5.97;3.42;;;;;;;;;;4968810;28;20234;-78
2023/06/19 13:28:13;;;;;;;4.05;3.33;;;;;;;;;;4954414;28;20203;-79
2023/06/19 13:30:41;;;;;;;4.30;3.30;;;;;;;;;;4966954;28;20256;-78
2023/06/19 13:33:09;;;;;;;3.85;3.42;;;;;;;;;;4956605;28;20649;-78
2023/06/19 13:35:36;;;;;;;3.78;3.30;;;;;;;;;;4967251;28;20196;-78
2023/06/19 13:38:03;;;;;;;6.93;3.75;;;;;;;;;;4952488;28;20325;-78
2023/06/19 13:40:32;;;;;;;3.97;3.40;;;;;;;;;;4945797;28;20291;-77
2023/06/19 13:42:59;;;;;;;3.95;3.45;;;;;;;;;;4946725;28;20757;-78
2023/06/19 13:45:27;;;;;;;4.60;3.47;;;;;;;;;;4949096;28;20195;-78
2023/06/19 13:47:54;;;;;;;5.95;3.80;;;;;;;;;;4945092;28;20195;-78
2023/06/19 13:50:23;;;;;;;4.30;3.63;;;;;;;;;;4942420;29;20243;-78
2023/06/19 13:52:50;;;;;;;4.03;3.55;;;;;;;;;;4942439;29;20214;-78
2023/06/19 13:55:18;;;;;;;5.82;3.63;;;;;;;;;;4942064;29;20283;-77
2023/06/19 13:57:47;;;;;;;5.80;3.60;;;;;;;;;;4943634;29;20230;-78
2023/06/19 14:00:15;;;;;;;6.03;3.75;;;;;;;;;;4944221;29;20645;-78
2023/06/19 14:02:42;;;;;;;4.95;3.90;;;;;;;;;;4943066;28;20255;-77
2023/06/19 14:05:10;;;;;;;4.57;3.40;;;;;;;;;;4943174;29;20289;-78
2023/06/19 14:07:37;;;;;;;6.90;3.75;;;;;;;;;;4943972;28;20639;-77
2023/06/19 14:10:05;;;;;;;4.88;3.75;;;;;;;;;;4942457;28;20278;-78
2023/06/19 14:12:32;;;;;;;4.18;3.63;;;;;;;;;;4934990;29;20291;-78
2023/06/19 14:15:01;;;;;;;5.68;3.63;;;;;;;;;;4939365;29;20391;-78
2023/06/19 14:17:28;;;;;;;3.90;3.50;;;;;;;;;;4952680;29;20799;-79
2023/06/19 14:19:56;;;;;;;5.95;3.95;;;;;;;;;;4953333;29;20226;-78
2023/06/19 14:22:24;;;;;;;5.10;3.30;;;;;;;;;;4944595;29;20202;-79
2023/06/19 14:24:53;;;;;;;3.50;3.17;;;;;;;;;;4943871;29;20278;-78
2023/06/19 14:27:20;;;;;;;5.10;3.53;;;;;;;;;;4944123;29;20196;-78
2023/06/19 14:29:47;;;;;;;5.57;3.50;;;;;;;;;;4947276;29;20286;-78
2023/06/19 14:32:16;;;;;;;4.75;3.63;;;;;;;;;;4945667;29;20199;-78